Wetterdaten: Woche 15.01.18 - 21.01.18 (KW3)
Datum Zeit Temp. I. Temp. A. Feuchte I. Feuchte A. Luftdruck Regen Wind Richtung Taupunkt Windchill
15.01.2018 00:00 23,4 °C 0,4 °C 47 % 88 % 1022,6 hPa 0,0 l/m² 8,3 km/h (2 Bft) O-SO -1,4 °C -1,5 °C
15.01.2018 01:00 23,4 °C 0,4 °C 46 % 88 % 1021,9 hPa 0,0 l/m² 7,3 km/h (2 Bft) O -1,4 °C -0,9 °C
15.01.2018 02:00 23,3 °C 0,4 °C 46 % 89 % 1021,5 hPa 0,0 l/m² 6,7 km/h (2 Bft) O -1,2 °C -0,5 °C
15.01.2018 03:00 23,2 °C 0,6 °C 46 % 88 % 1020,7 hPa 0,0 l/m² 8,3 km/h (2 Bft) SO -1,2 °C -1,3 °C
15.01.2018 04:00 23,3 °C 0,0 °C 46 % 87 % 1019,9 hPa 0,0 l/m² 11,1 km/h (2 Bft) O-SO -1,9 °C -4,2 °C
15.01.2018 05:00 23,2 °C -0,2 °C 45 % 87 % 1019,1 hPa 0,0 l/m² 12,6 km/h (2 Bft) SO -2,1 °C -5,4 °C
15.01.2018 06:00 23,1 °C -0,6 °C 44 % 88 % 1018,6 hPa 0,0 l/m² 11,4 km/h (2 Bft) SO -2,4 °C -5,0 °C
15.01.2018 07:00 23,0 °C -0,8 °C 42 % 88 % 1017,9 hPa 0,0 l/m² 12,9 km/h (3 Bft) S-SO -2,5 °C -6,3 °C
15.01.2018 08:00 23,0 °C -0,5 °C 42 % 88 % 1017,6 hPa 0,0 l/m² 12,2 km/h (2 Bft) S-SO -2,2 °C -5,4 °C
15.01.2018 09:00 23,7 °C 0,2 °C 42 % 87 % 1017,1 hPa 0,0 l/m² 12,2 km/h (2 Bft) S-SO -1,7 °C -4,8 °C
15.01.2018 10:00 23,3 °C 1,1 °C 42 % 87 % 1016,2 hPa 0,0 l/m² 14,5 km/h (3 Bft) S-SO -0,9 °C -5,2 °C
15.01.2018 11:00 23,7 °C 2,8 °C 42 % 84 % 1015,0 hPa 0,0 l/m² 15,0 km/h (3 Bft) S-SO 0,3 °C -3,3 °C
15.01.2018 12:00 23,9 °C 3,7 °C 42 % 80 % 1013,7 hPa 0,0 l/m² 17,2 km/h (3 Bft) S 0,5 °C -3,4 °C
15.01.2018 13:00 23,6 °C 3,9 °C 42 % 79 % 1012,2 hPa 0,0 l/m² 14,2 km/h (3 Bft) S-SO 0,7 °C -1,6 °C
15.01.2018 14:00 23,6 °C 4,8 °C 42 % 77 % 1010,7 hPa 0,0 l/m² 15,5 km/h (3 Bft) S-SO 1,2 °C -1,2 °C
15.01.2018 15:00 23,5 °C 4,4 °C 42 % 78 % 1009,4 hPa 0,0 l/m² 18,7 km/h (3 Bft) S 0,8 °C -3,2 °C
15.01.2018 16:00 23,3 °C 4,3 °C 43 % 77 % 1008,0 hPa 0,0 l/m² 18,5 km/h (3 Bft) S-SO 0,6 °C -3,3 °C
15.01.2018 17:00 23,1 °C 4,1 °C 43 % 77 % 1006,5 hPa 0,0 l/m² 17,7 km/h (3 Bft) SO 0,5 °C -2,8 °C
15.01.2018 18:00 22,9 °C 3,6 °C 43 % 77 % 1005,6 hPa 0,0 l/m² 19,2 km/h (3 Bft) S-SO 0,1 °C -4,4 °C
15.01.2018 19:00 23,0 °C 3,5 °C 44 % 78 % 1003,5 hPa 0,0 l/m² 26,1 km/h (4 Bft) S-SO 0,0 °C -7,2 °C
15.01.2018 20:00 23,1 °C 3,5 °C 44 % 78 % 1002,0 hPa 0,0 l/m² 25,1 km/h (4 Bft) S-SO -0,1 °C -6,8 °C
15.01.2018 21:00 23,5 °C 3,5 °C 44 % 81 % 1000,4 hPa 0,0 l/m² 25,0 km/h (4 Bft) S-SO 0,6 °C -6,8 °C
15.01.2018 22:00 23,6 °C 3,8 °C 44 % 81 % 998,6 hPa 0,0 l/m² 20,3 km/h (4 Bft) SO 0,9 °C -4,5 °C
15.01.2018 23:00 23,2 °C 4,1 °C 44 % 81 % 997,0 hPa 0,0 l/m² 23,9 km/h (4 Bft) S-SO 1,1 °C -5,6 °C
16.01.2018 00:00 23,0 °C 4,1 °C 44 % 84 % 995,6 hPa 0,0 l/m² 22,1 km/h (4 Bft) S-SO 1,6 °C -4,9 °C
16.01.2018 01:00 22,9 °C 4,4 °C 44 % 87 % 993,9 hPa 0,5 l/m² 25,7 km/h (4 Bft) S 2,4 °C -5,9 °C
16.01.2018 02:00 22,8 °C 4,6 °C 44 % 86 % 993,1 hPa 0,0 l/m² 15,0 km/h (3 Bft) S 2,5 °C -0,9 °C
16.01.2018 03:00 22,7 °C 4,8 °C 44 % 87 % 992,3 hPa 0,5 l/m² 18,4 km/h (3 Bft) SW 2,9 °C -2,5 °C
16.01.2018 04:00 22,7 °C 5,4 °C 44 % 86 % 992,0 hPa 0,5 l/m² 15,0 km/h (3 Bft) S-SW 3,4 °C 0,4 °C
16.01.2018 05:00 22,7 °C 4,9 °C 44 % 89 % 991,6 hPa 1,0 l/m² 5,9 km/h (2 Bft) S-SW 3,2 °C 4,5 °C
16.01.2018 06:00 22,6 °C 4,7 °C 44 % 91 % 991,4 hPa 0,0 l/m² 11,4 km/h (2 Bft) SW 3,3 °C 1,2 °C
16.01.2018 07:00 22,6 °C 4,2 °C 43 % 91 % 991,1 hPa 0,0 l/m² 13,0 km/h (3 Bft) SW 2,9 °C -0,4 °C
16.01.2018 08:00 22,5 °C 4,5 °C 43 % 91 % 990,8 hPa 0,0 l/m² 17,7 km/h (3 Bft) SW 3,1 °C -2,8 °C
16.01.2018 09:00 22,5 °C 5,0 °C 44 % 90 % 990,9 hPa 0,5 l/m² 17,1 km/h (3 Bft) SW 3,5 °C -1,3 °C
16.01.2018 10:00 22,7 °C 5,6 °C 44 % 88 % 990,7 hPa 0,0 l/m² 18,0 km/h (3 Bft) W-SW 3,7 °C -1,2 °C
16.01.2018 11:00 23,4 °C 7,1 °C 43 % 85 % 990,3 hPa 0,0 l/m² 21,1 km/h (4 Bft) W-SW 4,8 °C -0,5 °C
16.01.2018 12:00 23,4 °C 6,8 °C 43 % 84 % 989,9 hPa 0,0 l/m² 25,6 km/h (4 Bft) W-SW 4,3 °C -2,3 °C
16.01.2018 13:00 23,1 °C 6,2 °C 43 % 85 % 989,1 hPa 0,0 l/m² 19,4 km/h (3 Bft) W-SW 3,9 °C -1,2 °C
16.01.2018 14:00 22,9 °C 4,8 °C 43 % 88 % 988,3 hPa 0,5 l/m² 17,7 km/h (3 Bft) W-SW 3,0 °C -2,3 °C
16.01.2018 15:00 22,8 °C 4,6 °C 43 % 88 % 989,0 hPa 0,0 l/m² 24,2 km/h (4 Bft) W 2,8 °C -5,0 °C
16.01.2018 16:00 22,8 °C 4,3 °C 43 % 87 % 990,4 hPa 0,0 l/m² 23,8 km/h (4 Bft) W 2,3 °C -5,4 °C
16.01.2018 17:00 22,6 °C 3,0 °C 43 % 86 % 991,3 hPa 0,0 l/m² 19,4 km/h (3 Bft) W-SW 0,9 °C -5,4 °C
16.01.2018 18:00 22,6 °C 2,4 °C 44 % 88 % 991,7 hPa 0,0 l/m² 14,0 km/h (3 Bft) W-SW 0,5 °C -3,2 °C
16.01.2018 19:00 22,7 °C 2,4 °C 45 % 88 % 992,0 hPa 0,0 l/m² 11,9 km/h (2 Bft) W-SW 0,6 °C -2,0 °C
16.01.2018 20:00 22,6 °C 1,5 °C 45 % 88 % 992,0 hPa 0,0 l/m² 14,6 km/h (3 Bft) W-SW -0,2 °C -4,7 °C
16.01.2018 21:00 23,0 °C 1,1 °C 46 % 90 % 992,0 hPa 0,0 l/m² 19,3 km/h (3 Bft) SW -0,4 °C -7,6 °C
16.01.2018 22:00 23,4 °C 1,3 °C 46 % 90 % 992,1 hPa 0,0 l/m² 18,2 km/h (3 Bft) W-SW -0,1 °C -7,0 °C
16.01.2018 23:00 23,2 °C 1,0 °C 46 % 91 % 992,2 hPa 0,0 l/m² 9,3 km/h (2 Bft) SW -0,3 °C -1,7 °C
17.01.2018 00:00 23,0 °C 0,7 °C 47 % 91 % 992,1 hPa 0,0 l/m² 8,6 km/h (2 Bft) W-SW -0,6 °C -2,3 °C
17.01.2018 01:00 23,0 °C 0,5 °C 47 % 91 % 992,0 hPa 0,0 l/m² 4,9 km/h (1 Bft) W-SW -0,8 °C 0,1 °C
17.01.2018 02:00 22,9 °C 0,3 °C 48 % 92 % 991,6 hPa 0,0 l/m² 11,1 km/h (2 Bft) SW -0,9 °C -3,8 °C
17.01.2018 03:00 22,9 °C 0,3 °C 48 % 92 % 991,3 hPa 0,0 l/m² 4,8 km/h (1 Bft) W-SW -0,9 °C -0,9 °C
17.01.2018 04:00 22,9 °C 0,4 °C 48 % 92 % 990,9 hPa 0,0 l/m² 7,9 km/h (2 Bft) S-SW -0,7 °C -1,4 °C
17.01.2018 05:00 22,9 °C 0,6 °C 48 % 92 % 990,5 hPa 0,0 l/m² 4,4 km/h (1 Bft) S-SO -0,6 °C 0,4 °C
17.01.2018 06:00 22,9 °C 1,3 °C 46 % 92 % 990,4 hPa 0,0 l/m² 12,1 km/h (2 Bft) S-SW 0,1 °C -3,4 °C
17.01.2018 07:00 22,8 °C 1,4 °C 44 % 92 % 990,3 hPa 0,0 l/m² 11,2 km/h (2 Bft) S 0,3 °C -2,5 °C
17.01.2018 08:00 22,8 °C 1,2 °C 44 % 93 % 991,3 hPa 0,5 l/m² 13,6 km/h (3 Bft) W 0,1 °C -4,4 °C
17.01.2018 09:00 22,8 °C 1,4 °C 44 % 93 % 992,6 hPa 0,0 l/m² 14,0 km/h (3 Bft) W-SW 0,4 °C -4,6 °C
17.01.2018 10:00 23,2 °C 2,6 °C 44 % 92 % 993,9 hPa 0,0 l/m² 12,3 km/h (2 Bft) W-SW 1,3 °C -2,0 °C
17.01.2018 11:00 23,5 °C 3,2 °C 44 % 88 % 994,5 hPa 0,0 l/m² 22,4 km/h (4 Bft) W 1,5 °C -6,1 °C
17.01.2018 12:00 23,4 °C 3,4 °C 43 % 86 % 995,2 hPa 0,0 l/m² 25,3 km/h (4 Bft) W 1,2 °C -7,1 °C
17.01.2018 13:00 23,4 °C 3,6 °C 44 % 83 % 996,0 hPa 0,0 l/m² 27,0 km/h (5 Bft) W 1,1 °C -7,2 °C
17.01.2018 14:00 23,2 °C 3,3 °C 44 % 85 % 997,0 hPa 0,0 l/m² 24,9 km/h (4 Bft) W-SW 1,0 °C -7,0 °C
17.01.2018 15:00 23,2 °C 3,5 °C 44 % 82 % 998,0 hPa 0,0 l/m² 23,3 km/h (4 Bft) W 0,7 °C -6,3 °C
17.01.2018 16:00 23,0 °C 2,5 °C 44 % 82 % 998,4 hPa 0,0 l/m² 19,9 km/h (4 Bft) W -0,2 °C -6,1 °C
17.01.2018 17:00 22,9 °C 2,3 °C 44 % 85 % 998,7 hPa 0,0 l/m² 15,6 km/h (3 Bft) W-SW -0,1 °C -4,1 °C
17.01.2018 18:00 22,8 °C 2,1 °C 45 % 87 % 999,4 hPa 0,0 l/m² 19,7 km/h (3 Bft) W-SW 0,2 °C -6,5 °C
17.01.2018 19:00 22,8 °C 1,5 °C 45 % 90 % 1000,3 hPa 0,0 l/m² 16,2 km/h (3 Bft) W-SW -0,0 °C -5,6 °C
17.01.2018 20:00 22,8 °C 1,8 °C 46 % 90 % 1001,3 hPa 0,0 l/m² 17,6 km/h (3 Bft) W-SW 0,3 °C -6,1 °C
17.01.2018 21:00 23,1 °C 1,5 °C 47 % 90 % 1002,0 hPa 0,0 l/m² 15,2 km/h (3 Bft) W-SW 0,1 °C -4,9 °C
17.01.2018 22:00 23,2 °C 1,4 °C 45 % 90 % 1002,7 hPa 0,0 l/m² 18,5 km/h (3 Bft) W-SW -0,1 °C -6,8 °C
17.01.2018 23:00 22,9 °C 1,9 °C 45 % 90 % 1003,7 hPa 0,0 l/m² 14,6 km/h (3 Bft) W-SW 0,4 °C -4,2 °C
18.01.2018 00:00 22,8 °C 1,5 °C 46 % 90 % 1004,1 hPa 0,0 l/m² 11,6 km/h (2 Bft) W-SW 0,1 °C -2,7 °C
18.01.2018 01:00 22,8 °C 1,4 °C 46 % 91 % 1004,1 hPa 0,0 l/m² 18,6 km/h (3 Bft) SW 0,1 °C -6,8 °C
18.01.2018 02:00 22,8 °C 1,5 °C 46 % 90 % 1003,9 hPa 0,0 l/m² 15,3 km/h (3 Bft) SW 0,1 °C -4,9 °C
18.01.2018 03:00 22,8 °C 1,7 °C 46 % 90 % 1003,5 hPa 0,0 l/m² 20,8 km/h (4 Bft) W-SW 0,2 °C -7,6 °C
18.01.2018 04:00 22,8 °C 1,9 °C 46 % 90 % 1002,8 hPa 0,0 l/m² 17,4 km/h (3 Bft) W-SW 0,4 °C -5,5 °C
18.01.2018 05:00 22,8 °C 2,2 °C 46 % 88 % 1002,0 hPa 0,0 l/m² 16,7 km/h (3 Bft) SW 0,4 °C -5,0 °C
18.01.2018 06:00 22,8 °C 2,4 °C 45 % 88 % 1000,6 hPa 0,0 l/m² 16,0 km/h (3 Bft) S 0,5 °C -4,3 °C
18.01.2018 07:00 22,6 °C 2,6 °C 42 % 87 % 998,7 hPa 0,0 l/m² 20,8 km/h (4 Bft) S 0,6 °C -6,4 °C
18.01.2018 08:00 22,5 °C 2,4 °C 42 % 88 % 996,1 hPa 0,0 l/m² 20,6 km/h (4 Bft) S-SO 0,7 °C -6,6 °C
18.01.2018 09:00 22,5 °C 2,2 °C 42 % 90 % 992,7 hPa 0,5 l/m² 23,1 km/h (4 Bft) SO 0,8 °C -7,8 °C
18.01.2018 10:00 22,4 °C 3,2 °C 42 % 91 % 990,0 hPa 1,0 l/m² 25,2 km/h (4 Bft) S-SW 1,8 °C -7,2 °C
18.01.2018 11:00 22,3 °C 4,4 °C 43 % 89 % 988,4 hPa 0,0 l/m² 29,9 km/h (5 Bft) SW 2,8 °C -7,1 °C
18.01.2018 12:00 22,3 °C 5,7 °C 43 % 88 % 986,3 hPa 0,5 l/m² 28,9 km/h (5 Bft) SW 3,8 °C -5,0 °C
18.01.2018 13:00 22,3 °C 7,3 °C 43 % 86 % 983,9 hPa 0,0 l/m² 33,8 km/h (5 Bft) W-SW 5,1 °C -3,9 °C
18.01.2018 14:00 22,4 °C 8,3 °C 43 % 70 % 983,4 hPa 0,0 l/m² 14,4 km/h (3 Bft) SW 3,1 °C 5,0 °C
18.01.2018 15:00 22,4 °C 7,5 °C 42 % 66 % 984,8 hPa 0,0 l/m² 0,5 km/h (0 Bft) SW 1,6 °C 7,5 °C
18.01.2018 16:00 22,2 °C 6,2 °C 42 % 70 % 987,2 hPa 0,0 l/m² 0,4 km/h (0 Bft) S-SW 1,2 °C 6,2 °C
18.01.2018 17:00 22,2 °C 5,7 °C 42 % 71 % 990,4 hPa 0,0 l/m² 0,3 km/h (0 Bft) S-SW 0,9 °C 5,7 °C
18.01.2018 18:00 22,2 °C 5,4 °C 43 % 71 % 993,1 hPa 0,0 l/m² 0,1 km/h (0 Bft) W-SW 0,5 °C 5,4 °C
18.01.2018 19:00 22,4 °C 5,0 °C 43 % 73 % 995,4 hPa 0,0 l/m² 19,1 km/h (3 Bft) W-NW 0,6 °C -2,3 °C
18.01.2018 20:00 22,3 °C 4,1 °C 44 % 79 % 996,8 hPa 0,0 l/m² 16,4 km/h (3 Bft) W 0,8 °C -2,5 °C
18.01.2018 21:00 22,6 °C 3,4 °C 45 % 83 % 997,9 hPa 0,0 l/m² 10,1 km/h (2 Bft) W 0,8 °C 0,4 °C
18.01.2018 22:00 23,0 °C 2,8 °C 45 % 85 % 999,0 hPa 0,0 l/m² 8,6 km/h (2 Bft) W-SW 0,5 °C 0,7 °C
18.01.2018 23:00 22,8 °C 2,0 °C 44 % 87 % 999,5 hPa 0,0 l/m² 12,2 km/h (2 Bft) W-SW 0,1 °C -2,6 °C
19.01.2018 00:00 22,5 °C 2,0 °C 44 % 89 % 999,8 hPa 0,0 l/m² 14,7 km/h (3 Bft) W-SW 0,4 °C -4,3 °C
19.01.2018 01:00 22,4 °C 2,2 °C 44 % 89 % 1000,2 hPa 0,0 l/m² 18,4 km/h (3 Bft) W-SW 0,6 °C -5,9 °C
19.01.2018 02:00 22,4 °C 2,6 °C 44 % 88 % 1000,5 hPa 0,0 l/m² 13,1 km/h (3 Bft) W 0,8 °C -2,4 °C
19.01.2018 03:00 22,4 °C 2,6 °C 44 % 87 % 1000,9 hPa 0,0 l/m² 11,6 km/h (2 Bft) W 0,7 °C -1,5 °C
19.01.2018 04:00 22,3 °C 2,6 °C 44 % 87 % 1001,4 hPa 0,0 l/m² 9,3 km/h (2 Bft) W-NW 0,7 °C 0,2 °C
19.01.2018 05:00 22,3 °C 2,5 °C 44 % 88 % 1001,8 hPa 0,0 l/m² 8,3 km/h (2 Bft) W-NW 0,7 °C 0,6 °C
19.01.2018 06:00 22,3 °C 2,4 °C 43 % 88 % 1002,3 hPa 0,0 l/m² 3,3 km/h (1 Bft) W-NW 0,6 °C 2,4 °C
19.01.2018 07:00 22,2 °C 2,3 °C 41 % 88 % 1003,1 hPa 0,0 l/m² 5,3 km/h (1 Bft) W 0,5 °C 2,0 °C
19.01.2018 08:00 22,1 °C 2,1 °C 42 % 88 % 1003,7 hPa 0,0 l/m² 4,4 km/h (1 Bft) W 0,3 °C 1,2 °C
19.01.2018 09:00 22,2 °C 2,6 °C 42 % 87 % 1004,3 hPa 0,0 l/m² 9,1 km/h (2 Bft) W 0,7 °C 0,3 °C
19.01.2018 10:00 22,2 °C 2,9 °C 42 % 87 % 1005,2 hPa 0,0 l/m² 8,9 km/h (2 Bft) W 0,9 °C 0,6 °C
19.01.2018 11:00 22,3 °C 3,7 °C 42 % 86 % 1005,7 hPa 0,0 l/m² 13,0 km/h (3 Bft) W 1,5 °C -1,2 °C
19.01.2018 12:00 22,4 °C 4,0 °C 42 % 86 % 1005,9 hPa 0,0 l/m² 12,9 km/h (3 Bft) W 1,9 °C -0,7 °C
19.01.2018 13:00 22,4 °C 3,6 °C 42 % 87 % 1006,2 hPa 0,0 l/m² 11,9 km/h (2 Bft) W 1,6 °C -0,5 °C
19.01.2018 14:00 22,6 °C 4,1 °C 43 % 87 % 1006,4 hPa 0,0 l/m² 14,5 km/h (3 Bft) W 2,1 °C -1,6 °C
19.01.2018 15:00 22,6 °C 3,7 °C 43 % 87 % 1006,8 hPa 0,0 l/m² 15,3 km/h (3 Bft) W 1,8 °C -2,4 °C
19.01.2018 16:00 22,3 °C 3,3 °C 42 % 88 % 1007,4 hPa 0,0 l/m² 12,8 km/h (3 Bft) W-NW 1,5 °C -1,6 °C
19.01.2018 17:00 22,2 °C 2,9 °C 42 % 89 % 1007,7 hPa 0,0 l/m² 11,8 km/h (2 Bft) W-NW 1,3 °C -1,3 °C
19.01.2018 18:00 22,3 °C 2,5 °C 43 % 89 % 1008,0 hPa 0,0 l/m² 4,2 km/h (1 Bft) W 0,8 °C 2,2 °C
19.01.2018 19:00 22,4 °C 1,7 °C 43 % 90 % 1008,0 hPa 0,0 l/m² 7,3 km/h (2 Bft) W-NW 0,2 °C -0,0 °C
19.01.2018 20:00 22,3 °C 1,9 °C 44 % 90 % 1008,1 hPa 0,0 l/m² 10,1 km/h (2 Bft) W 0,5 °C -1,2 °C
19.01.2018 21:00 22,6 °C 0,8 °C 44 % 91 % 1008,0 hPa 0,0 l/m² 5,2 km/h (1 Bft) W -0,5 °C -0,0 °C
19.01.2018 22:00 22,7 °C 0,5 °C 43 % 91 % 1008,1 hPa 0,0 l/m² 5,2 km/h (1 Bft) W -0,7 °C 0,1 °C
19.01.2018 23:00 22,4 °C 0,9 °C 43 % 91 % 1008,1 hPa 0,0 l/m² 10,2 km/h (2 Bft) W -0,4 °C -2,6 °C
20.01.2018 00:00 22,5 °C 1,4 °C 43 % 91 % 1008,1 hPa 0,0 l/m² 8,6 km/h (2 Bft) SW 0,1 °C -1,0 °C
20.01.2018 01:00 22,5 °C 1,4 °C 43 % 91 % 1007,9 hPa 0,0 l/m² 6,9 km/h (2 Bft) W 0,1 °C 0,1 °C
20.01.2018 02:00 22,5 °C 1,7 °C 43 % 89 % 1007,9 hPa 0,0 l/m² 10,9 km/h (2 Bft) W 0,2 °C -2,0 °C
20.01.2018 03:00 22,5 °C 1,3 °C 43 % 91 % 1007,7 hPa 0,0 l/m² 13,0 km/h (3 Bft) W -0,0 °C -3,9 °C
20.01.2018 04:00 22,4 °C 1,2 °C 42 % 92 % 1007,6 hPa 0,0 l/m² 12,3 km/h (2 Bft) W -0,0 °C -3,6 °C
20.01.2018 05:00 22,4 °C 0,8 °C 42 % 93 % 1007,4 hPa 0,0 l/m² 11,1 km/h (2 Bft) W -0,2 °C -3,2 °C
20.01.2018 06:00 22,2 °C 0,9 °C 42 % 93 % 1007,1 hPa 0,0 l/m² 10,3 km/h (2 Bft) W -0,1 °C -2,7 °C
20.01.2018 07:00 22,3 °C 0,7 °C 42 % 93 % 1006,8 hPa 0,0 l/m² 4,3 km/h (1 Bft) W-NW -0,3 °C -0,1 °C
20.01.2018 08:00 22,2 °C 0,9 °C 40 % 93 % 1007,0 hPa 0,0 l/m² 8,8 km/h (2 Bft) W -0,1 °C -1,4 °C
20.01.2018 09:00 22,1 °C 0,9 °C 39 % 93 % 1006,9 hPa 0,5 l/m² 6,3 km/h (2 Bft) W-SW -0,1 °C -0,1 °C
20.01.2018 10:00 22,0 °C 1,3 °C 39 % 93 % 1007,0 hPa 0,0 l/m² 1,0 km/h (0 Bft) W-SW 0,3 °C 1,3 °C
20.01.2018 11:00 22,2 °C 2,3 °C 40 % 94 % 1006,6 hPa 0,0 l/m² 5,4 km/h (2 Bft) W 1,4 °C 1,7 °C
20.01.2018 12:00 22,4 °C 2,9 °C 40 % 92 % 1005,7 hPa 0,0 l/m² 10,9 km/h (2 Bft) W 1,8 °C -0,7 °C
20.01.2018 13:00 22,4 °C 3,7 °C 41 % 89 % 1004,7 hPa 0,0 l/m² 15,3 km/h (3 Bft) W 2,1 °C -2,4 °C
20.01.2018 14:00 22,5 °C 3,7 °C 41 % 87 % 1004,0 hPa 0,0 l/m² 8,2 km/h (2 Bft) W-NW 1,7 °C 1,9 °C
20.01.2018 15:00 22,4 °C 3,3 °C 41 % 87 % 1003,4 hPa 0,0 l/m² 1,2 km/h (1 Bft) W-NW 1,3 °C 3,3 °C
20.01.2018 16:00 22,3 °C 2,4 °C 41 % 88 % 1002,7 hPa 0,0 l/m² 4,9 km/h (1 Bft) S-SW 0,6 °C 2,2 °C
20.01.2018 17:00 22,2 °C 2,1 °C 41 % 89 % 1002,1 hPa 0,0 l/m² 3,7 km/h (1 Bft) S-SO 0,4 °C 2,1 °C
20.01.2018 18:00 22,2 °C 1,3 °C 41 % 90 % 1001,4 hPa 0,0 l/m² 1,7 km/h (1 Bft) S-SO -0,2 °C 1,3 °C
20.01.2018 19:00 22,2 °C 0,8 °C 41 % 91 % 1000,9 hPa 0,0 l/m² 1,7 km/h (1 Bft) S-SO -0,5 °C 0,8 °C
20.01.2018 20:00 22,1 °C 0,7 °C 41 % 91 % 1000,9 hPa 0,0 l/m² 5,2 km/h (1 Bft) SO -0,6 °C 0,4 °C
20.01.2018 21:00 22,2 °C 0,3 °C 41 % 91 % 1000,8 hPa 0,0 l/m² 7,3 km/h (2 Bft) SO -1,0 °C -1,0 °C
20.01.2018 22:00 22,3 °C 0,2 °C 41 % 92 % 1000,7 hPa 0,0 l/m² 5,1 km/h (1 Bft) SO -0,9 °C -0,2 °C
20.01.2018 23:00 22,3 °C 0,3 °C 41 % 92 % 1000,7 hPa 0,0 l/m² 3,1 km/h (1 Bft) SO -0,8 °C 0,3 °C
21.01.2018 00:00 22,4 °C 0,3 °C 42 % 92 % 1000,8 hPa 0,0 l/m² 2,7 km/h (1 Bft) SO -0,8 °C 0,2 °C
21.01.2018 01:00 22,5 °C 0,3 °C 42 % 92 % 1001,1 hPa 0,0 l/m² 0,3 km/h (0 Bft) SO -0,9 °C 0,3 °C
21.01.2018 02:00 22,5 °C 0,3 °C 42 % 92 % 1002,0 hPa 0,0 l/m² 0,9 km/h (0 Bft) SO -0,8 °C 0,3 °C
21.01.2018 03:00 22,6 °C 0,4 °C 42 % 92 % 1002,8 hPa 0,0 l/m² 1,0 km/h (0 Bft) SO -0,7 °C 0,4 °C
21.01.2018 04:00 22,6 °C 0,3 °C 42 % 92 % 1003,7 hPa 0,0 l/m² 4,6 km/h (1 Bft) SO -0,8 °C -0,3 °C
21.01.2018 05:00 22,6 °C 0,1 °C 42 % 92 % 1004,7 hPa 0,0 l/m² 5,1 km/h (1 Bft) SO -1,0 °C -1,0 °C
21.01.2018 06:00 22,6 °C -0,0 °C 42 % 92 % 1005,8 hPa 0,0 l/m² 6,2 km/h (2 Bft) SO -1,2 °C -0,9 °C
21.01.2018 07:00 22,6 °C -0,2 °C 42 % 93 % 1007,1 hPa 0,0 l/m² 6,2 km/h (2 Bft) SO -1,2 °C -1,1 °C
21.01.2018 08:00 22,6 °C -0,1 °C 42 % 93 % 1008,4 hPa 0,0 l/m² 3,7 km/h (1 Bft) SO -1,1 °C -0,4 °C
21.01.2018 09:00 22,7 °C 0,4 °C 42 % 93 % 1009,9 hPa 0,0 l/m² 6,3 km/h (2 Bft) SO -0,6 °C -1,1 °C
21.01.2018 10:00 22,7 °C 0,8 °C 42 % 93 % 1011,3 hPa 0,0 l/m² 6,9 km/h (2 Bft) N-NO -0,2 °C -0,9 °C
21.01.2018 11:00 22,8 °C 1,4 °C 42 % 93 % 1012,1 hPa 0,0 l/m² 5,5 km/h (2 Bft) N-NO 0,4 °C 0,5 °C
21.01.2018 12:00 23,0 °C 3,0 °C 42 % 92 % 1012,8 hPa 0,0 l/m² 9,0 km/h (2 Bft) N 1,9 °C 0,6 °C
21.01.2018 13:00 23,0 °C 2,3 °C 42 % 91 % 1013,9 hPa 0,0 l/m² 5,9 km/h (2 Bft) N-NO 1,0 °C 1,4 °C
21.01.2018 14:00 23,1 °C 3,2 °C 42 % 90 % 1014,3 hPa 0,0 l/m² 5,1 km/h (1 Bft) N-NW 1,7 °C 2,6 °C
21.01.2018 15:00 23,2 °C 3,1 °C 42 % 89 % 1015,1 hPa 0,0 l/m² 4,6 km/h (1 Bft) N-NW 1,5 °C 3,0 °C
21.01.2018 16:00 23,1 °C 1,2 °C 42 % 90 % 1015,8 hPa 0,0 l/m² 1,0 km/h (0 Bft) N-NW -0,2 °C 1,2 °C
21.01.2018 17:00 23,0 °C 0,0 °C 42 % 91 % 1016,2 hPa 0,0 l/m² 0,5 km/h (0 Bft) NO -1,2 °C 0,0 °C
21.01.2018 18:00 22,9 °C 0,0 °C 42 % 92 % 1016,7 hPa 0,0 l/m² 1,9 km/h (1 Bft) O-SO -1,1 °C 0,0 °C
21.01.2018 19:00 22,7 °C 0,1 °C 41 % 93 % 1016,7 hPa 0,0 l/m² 2,9 km/h (1 Bft) O-SO -0,9 °C -0,0 °C
21.01.2018 20:00 22,7 °C -0,0 °C 41 % 93 % 1017,0 hPa 0,0 l/m² 8,0 km/h (2 Bft) O-SO -1,0 °C -2,0 °C
21.01.2018 21:00 22,8 °C 0,1 °C 42 % 94 % 1016,7 hPa 0,0 l/m² 5,2 km/h (1 Bft) O-SO -0,8 °C -0,9 °C
21.01.2018 22:00 23,0 °C 0,1 °C 42 % 94 % 1016,1 hPa 0,0 l/m² 2,9 km/h (1 Bft) O-SO -0,8 °C 0,1 °C
21.01.2018 23:00 23,0 °C -0,3 °C 42 % 94 % 1015,5 hPa 0,0 l/m² 2,4 km/h (1 Bft) O-SO -1,2 °C -0,3 °C
Min-Datum _ 20.01.18 15.01.18 20.01.18 18.01.18 18.01.18 - 21.01.18 - 15.01.18 18.01.18
_ Min-Zeit 10:01 07:09 09:29 14:37 14:09 - 23:23 - 07:09 03:23
Minimum _ 21,9 °C -0,9 °C 37 % 63 % 982,8 hPa - 0,0 km/h (0 Bft) - -2,6 °C -12,0 °C
Max-Datum _ 15.01.18 18.01.18 17.01.18 21.01.18 15.01.18 18.01.18 18.01.18 - 18.01.18 18.01.18
_ Max-Zeit 09:11 14:23 05:01 23:01 00:03 10:41 14:15 - 13:39 14:23
Maximum _ 24,2 °C 8,6 °C 48 % 94 % 1023,0 hPa 1,0 l/m² 101,2 km/h
SW (10 Bft)
- 5,6 °C 8,6 °C
Durchschnitt _ 22,7 °C 2,4 °C 43 % 88 % 1002,1 hPa #6,7 l/m² 12,2 km/h (2 Bft) W 0,5 °C -2,0 °C
© 2009 Mathias Hoßbach